createdAt,value
2023-01-02T00:01:45.111Z,11.20
2023-01-02T00:04:13.527Z,8.77
2023-01-02T00:06:41.914Z,8.70
2023-01-02T00:09:10.484Z,9.53
2023-01-02T00:11:38.929Z,7.87
2023-01-02T00:14:07.538Z,9.13
2023-01-02T00:16:36.067Z,10.27
2023-01-02T00:19:07.077Z,6.67
2023-01-02T00:21:35.632Z,9.97
2023-01-02T00:24:04.211Z,8.27
2023-01-02T00:26:32.759Z,7.47
2023-01-02T00:29:02.478Z,11.03
2023-01-02T00:31:31.202Z,6.93
2023-01-02T00:34:00.304Z,8.43
2023-01-02T00:36:30.365Z,8.73
2023-01-02T00:38:59.197Z,8.37
2023-01-02T00:41:28.117Z,8.67
2023-01-02T00:43:56.662Z,7.87
2023-01-02T00:46:25.247Z,8.73
2023-01-02T00:48:53.850Z,7.00
2023-01-02T00:51:22.309Z,7.70
2023-01-02T00:53:52.360Z,9.10
2023-01-02T00:56:20.987Z,6.40
2023-01-02T00:58:49.471Z,8.17
2023-01-02T01:01:18.313Z,8.97
2023-01-02T01:03:46.951Z,8.27
2023-01-02T01:06:15.896Z,7.90
2023-01-02T01:08:44.946Z,10.93
2023-01-02T01:11:17.519Z,7.57
2023-01-02T01:13:46.515Z,8.27
2023-01-02T01:16:16.936Z,7.87
2023-01-02T01:18:45.962Z,11.10
2023-01-02T01:21:16.848Z,11.70
2023-01-02T01:23:46.203Z,7.73
2023-01-02T01:26:16.854Z,8.87
2023-01-02T01:28:45.379Z,9.43
2023-01-02T01:31:15.603Z,10.93
2023-01-02T01:33:45.054Z,9.93
2023-01-02T01:36:15.993Z,12.33
2023-01-02T01:38:45.475Z,13.23
2023-01-02T01:41:17.523Z,11.73
2023-01-02T01:43:50.318Z,14.50
2023-01-02T01:46:25.204Z,13.93
2023-01-02T01:49:00.393Z,15.67
2023-01-02T01:51:31.203Z,12.97
2023-01-02T01:54:06.701Z,15.73
2023-01-02T01:56:39.739Z,16.33
2023-01-02T01:59:10.797Z,14.37
2023-01-02T02:01:40.651Z,16.60
2023-01-02T02:04:10.718Z,16.27
2023-01-02T02:06:39.727Z,16.83
2023-01-02T02:09:13.905Z,15.50
2023-01-02T02:11:44.284Z,15.07
2023-01-02T02:14:12.948Z,14.57
2023-01-02T02:16:47.892Z,17.10
2023-01-02T02:20:00.474Z,16.47
2023-01-02T02:23:03.571Z,14.63
2023-01-02T02:26:24.301Z,13.67
2023-01-02T02:29:25.472Z,15.73
2023-01-02T02:32:03.492Z,18.27
2023-01-02T02:34:39.827Z,16.17
2023-01-02T02:37:16.069Z,19.33
2023-01-02T02:39:56.114Z,16.10
2023-01-02T02:42:37.751Z,17.90
2023-01-02T02:45:12.053Z,15.80
2023-01-02T02:47:50.641Z,12.00
2023-01-02T02:50:24.975Z,15.30
2023-01-02T02:53:00.110Z,15.93
2023-01-02T02:55:32.609Z,27.77
2023-01-02T02:58:02.834Z,59.93
2023-01-02T03:00:31.384Z,57.23
2023-01-02T03:03:01.514Z,37.27
2023-01-02T03:05:36.900Z,20.27
2023-01-02T03:08:12.949Z,19.60
2023-01-02T03:10:48.178Z,17.83
2023-01-02T03:13:24.177Z,18.43
2023-01-02T03:16:01.938Z,15.77
2023-01-02T03:18:37.425Z,30.60
2023-01-02T03:21:10.668Z,20.70
2023-01-02T03:23:44.738Z,14.00
2023-01-02T03:26:16.984Z,14.83
2023-01-02T03:28:50.449Z,13.60
2023-01-02T03:31:21.615Z,15.67
2023-01-02T03:33:54.633Z,15.93
2023-01-02T03:36:26.461Z,19.00
2023-01-02T03:39:02.117Z,14.50
2023-01-02T03:41:34.994Z,17.50
2023-01-02T03:44:05.849Z,27.17
2023-01-02T03:46:39.964Z,26.87
2023-01-02T03:49:17.469Z,19.13
2023-01-02T03:51:46.194Z,21.37
2023-01-02T03:54:17.129Z,24.97
2023-01-02T03:56:54.463Z,15.23
2023-01-02T03:59:36.217Z,15.40
2023-01-02T04:02:11.977Z,15.33
2023-01-02T04:04:50.889Z,11.53
2023-01-02T04:07:26.489Z,10.47
2023-01-02T04:09:56.033Z,11.40
2023-01-02T04:12:26.464Z,8.07
2023-01-02T04:14:59.475Z,8.17
2023-01-02T04:17:30.249Z,10.53
2023-01-02T04:20:03.596Z,7.70
2023-01-02T04:22:37.918Z,12.63
2023-01-02T04:25:13.782Z,11.60
2023-01-02T04:27:48.109Z,11.50
2023-01-02T04:30:16.988Z,16.20
2023-01-02T04:32:46.961Z,12.77
2023-01-02T04:35:21.384Z,12.70
2023-01-02T04:37:50.322Z,13.20
2023-01-02T04:40:24.204Z,14.20
2023-01-02T04:42:53.423Z,13.67
2023-01-02T04:45:22.177Z,12.20
2023-01-02T04:47:51.149Z,13.57
2023-01-02T04:50:21.285Z,12.17
2023-01-02T04:52:50.279Z,10.63
2023-01-02T04:55:18.821Z,10.87
2023-01-02T04:57:47.538Z,14.50
2023-01-02T05:00:16.968Z,9.70
2023-01-02T05:02:45.499Z,10.97
2023-01-02T05:05:13.947Z,10.23
2023-01-02T05:07:43.995Z,12.07
2023-01-02T05:10:12.777Z,9.57
2023-01-02T05:12:41.722Z,9.60
2023-01-02T05:15:11.879Z,11.47
2023-01-02T05:17:41.729Z,11.67
2023-01-02T05:20:12.106Z,10.80
2023-01-02T05:22:58.582Z,8.00
2023-01-02T05:25:29.341Z,9.07
2023-01-02T05:27:57.770Z,6.90
2023-01-02T05:30:26.287Z,10.27
2023-01-02T05:32:55.322Z,7.57
2023-01-02T05:35:28.469Z,6.83
2023-01-02T05:37:59.050Z,4.90
2023-01-02T05:40:28.931Z,5.77
2023-01-02T05:42:57.349Z,6.23
2023-01-02T05:45:25.770Z,6.57
2023-01-02T05:47:54.190Z,5.63
2023-01-02T05:50:22.797Z,6.53
2023-01-02T05:52:51.462Z,4.93
2023-01-02T05:55:20.129Z,8.93
2023-01-02T05:57:49.971Z,15.63
2023-01-02T06:00:18.946Z,8.63
2023-01-02T06:02:48.667Z,7.93
2023-01-02T06:05:17.656Z,9.90
2023-01-02T06:07:46.160Z,10.47
2023-01-02T06:10:14.602Z,8.90
2023-01-02T06:12:42.980Z,8.93
2023-01-02T06:15:13.401Z,8.07
2023-01-02T06:17:41.855Z,16.23
2023-01-02T06:20:11.516Z,18.03
2023-01-02T06:22:40.062Z,20.87
2023-01-02T06:25:09.768Z,13.17
2023-01-02T06:27:38.303Z,7.63
2023-01-02T06:30:07.783Z,7.13
2023-01-02T06:32:37.665Z,5.80
2023-01-02T06:35:07.109Z,3.97
2023-01-02T06:37:35.495Z,4.10
2023-01-02T06:40:03.940Z,3.60
2023-01-02T06:42:33.237Z,4.63
2023-01-02T06:45:01.970Z,3.47
2023-01-02T06:47:30.612Z,4.47
2023-01-02T06:50:00.583Z,3.63
2023-01-02T06:52:29.723Z,3.37
2023-01-02T06:54:58.175Z,7.03
2023-01-02T06:57:26.693Z,6.57
2023-01-02T06:59:55.075Z,6.97
2023-01-02T07:02:23.788Z,9.27
2023-01-02T07:04:52.241Z,8.83
2023-01-02T07:07:22.234Z,8.03
2023-01-02T07:09:50.976Z,8.27
2023-01-02T07:12:19.583Z,7.33
2023-01-02T07:14:48.108Z,6.80
2023-01-02T07:17:16.803Z,5.80
2023-01-02T07:19:51.463Z,6.73
2023-01-02T07:22:23.586Z,8.23
2023-01-02T07:24:52.122Z,8.87
2023-01-02T07:27:20.579Z,5.93
2023-01-02T07:29:49.110Z,7.50
2023-01-02T07:32:22.459Z,7.93
2023-01-02T07:34:54.102Z,8.03
2023-01-02T07:37:24.018Z,7.60
2023-01-02T07:39:52.406Z,11.43
2023-01-02T07:42:20.888Z,10.50
2023-01-02T07:44:49.728Z,12.20
2023-01-02T07:47:18.211Z,10.20
2023-01-02T07:49:46.767Z,12.07
2023-01-02T07:52:17.971Z,10.87
2023-01-02T07:54:47.936Z,8.70
2023-01-02T07:57:16.407Z,9.70
2023-01-02T07:59:47.267Z,9.30
2023-01-02T08:02:15.761Z,9.10
2023-01-02T08:04:44.221Z,9.30
2023-01-02T08:07:12.642Z,8.30
2023-01-02T08:09:41.116Z,6.90
2023-01-02T08:12:11.251Z,5.70
2023-01-02T08:14:39.754Z,6.30
2023-01-02T08:17:08.314Z,7.27
2023-01-02T08:19:36.789Z,7.10
2023-01-02T08:22:05.267Z,7.43
2023-01-02T08:24:33.752Z,7.80
2023-01-02T08:27:02.664Z,6.37
2023-01-02T08:29:33.193Z,10.23
2023-01-02T08:32:01.775Z,7.67
2023-01-02T08:34:30.669Z,6.83
2023-01-02T08:36:59.169Z,5.83
2023-01-02T08:39:27.992Z,6.70
2023-01-02T08:41:58.282Z,5.40
2023-01-02T08:44:26.979Z,7.77
2023-01-02T08:46:56.888Z,7.47
2023-01-02T08:49:25.374Z,5.57
2023-01-02T08:51:53.857Z,10.13
2023-01-02T08:54:22.462Z,7.73
2023-01-02T08:56:51.032Z,10.30
2023-01-02T08:59:19.634Z,8.40
2023-01-02T09:01:48.365Z,5.27
2023-01-02T09:04:18.442Z,8.73
2023-01-02T09:06:47.439Z,4.93
2023-01-02T09:09:17.575Z,5.80
2023-01-02T09:11:50.814Z,5.57
2023-01-02T09:14:21.203Z,7.77
2023-01-02T09:16:50.503Z,7.17
2023-01-02T09:19:21.464Z,7.10
2023-01-02T09:21:50.535Z,6.87
2023-01-02T09:24:19.330Z,5.57
2023-01-02T09:26:48.025Z,8.80
2023-01-02T09:29:16.815Z,6.37
2023-01-02T09:31:45.327Z,7.30
2023-01-02T09:34:14.710Z,6.77
2023-01-02T09:36:44.617Z,10.40
2023-01-02T09:39:13.210Z,7.33
2023-01-02T09:41:44.269Z,6.77
2023-01-02T09:44:17.652Z,9.20
2023-01-02T09:46:51.472Z,8.77
2023-01-02T09:49:23.743Z,6.23
2023-01-02T09:51:54.171Z,8.00
2023-01-02T09:54:26.500Z,7.20
2023-01-02T09:57:08.940Z,4.63
2023-01-02T09:59:43.216Z,5.50
2023-01-02T10:02:26.366Z,6.17
2023-01-02T10:05:11.466Z,5.20
2023-01-02T10:07:49.147Z,4.33
2023-01-02T10:10:26.393Z,4.30
2023-01-02T10:13:04.070Z,4.20
2023-01-02T10:15:34.069Z,3.53
2023-01-02T10:18:13.125Z,6.30
2023-01-02T10:20:45.256Z,5.97
2023-01-02T10:23:19.950Z,5.10
2023-01-02T10:25:54.730Z,9.37
2023-01-02T10:28:29.687Z,5.47
2023-01-02T10:31:06.910Z,149.47
2023-01-02T10:33:44.127Z,298.00
2023-01-02T10:36:23.749Z,64.27
2023-01-02T10:38:54.713Z,10.27
2023-01-02T10:41:23.261Z,9.63
2023-01-02T10:43:55.951Z,6.30
2023-01-02T10:46:24.489Z,7.43
2023-01-02T10:48:53.053Z,6.43
2023-01-02T10:51:21.877Z,7.93
2023-01-02T10:54:03.145Z,6.57
2023-01-02T10:56:33.912Z,7.50
2023-01-02T10:59:03.512Z,8.27
2023-01-02T11:01:32.455Z,18.50
2023-01-02T11:04:12.526Z,41.00
2023-01-02T11:06:52.301Z,16.00
2023-01-02T11:09:23.868Z,7.07
2023-01-02T11:11:55.212Z,6.00
2023-01-02T11:14:28.423Z,5.47
2023-01-02T11:17:05.231Z,4.57
2023-01-02T11:19:41.533Z,7.57
2023-01-02T11:22:10.755Z,5.17
2023-01-02T11:24:59.866Z,5.30
2023-01-02T11:27:33.008Z,5.83
2023-01-02T11:30:02.157Z,4.53
2023-01-02T11:32:38.776Z,8.70
2023-01-02T11:35:28.183Z,5.13
2023-01-02T11:37:56.743Z,6.43
2023-01-02T11:40:29.707Z,4.73
2023-01-02T11:43:21.287Z,3.87
2023-01-02T11:45:50.066Z,5.07
2023-01-02T11:48:23.378Z,5.40
2023-01-02T11:50:53.048Z,4.77
2023-01-02T11:53:28.663Z,3.50
2023-01-02T11:56:04.013Z,4.63
2023-01-02T11:58:38.758Z,4.63
2023-01-02T12:01:13.237Z,8.73
2023-01-02T12:03:42.175Z,5.37
2023-01-02T12:06:18.598Z,9.57
2023-01-02T12:09:00.987Z,4.97
2023-01-02T12:11:46.017Z,5.47
2023-01-02T12:14:18.279Z,6.97
2023-01-02T12:16:54.069Z,5.30
2023-01-02T12:19:44.424Z,5.87
2023-01-02T12:22:29.484Z,6.80
2023-01-02T12:25:09.554Z,3.83
2023-01-02T12:27:51.418Z,4.10
2023-01-02T12:30:22.004Z,10.47
2023-01-02T12:33:22.848Z,8.43
2023-01-02T12:36:03.294Z,10.83
2023-01-02T12:38:47.849Z,8.00
2023-01-02T12:41:27.169Z,6.70
2023-01-02T12:44:18.853Z,21.63
2023-01-02T12:47:06.819Z,14.60
2023-01-02T12:49:51.061Z,12.97
2023-01-02T12:52:32.597Z,8.83
2023-01-02T12:55:18.177Z,13.63
2023-01-02T12:57:55.839Z,32.30
2023-01-02T13:00:51.103Z,12.73
2023-01-02T13:03:45.101Z,9.40
2023-01-02T13:06:45.889Z,10.10
2023-01-02T13:09:14.605Z,6.00
2023-01-02T13:11:53.541Z,8.87
2023-01-02T13:14:25.360Z,5.93
2023-01-02T13:17:06.504Z,6.67
2023-01-02T13:19:41.719Z,6.67
2023-01-02T13:22:20.222Z,6.03
2023-01-02T13:24:49.810Z,6.90
2023-01-02T13:27:18.977Z,7.30
2023-01-02T13:29:47.928Z,6.53
2023-01-02T13:32:29.271Z,8.73
2023-01-02T13:35:00.557Z,15.87
2023-01-02T13:37:31.079Z,12.50
2023-01-02T13:40:02.559Z,9.57
2023-01-02T13:42:52.677Z,10.17
2023-01-02T13:45:25.572Z,6.97
2023-01-02T13:47:57.850Z,16.10
2023-01-02T13:50:30.360Z,9.00
2023-01-02T13:53:07.217Z,8.03
2023-01-02T13:55:37.386Z,6.17
2023-01-02T13:58:37.898Z,6.80
2023-01-02T14:01:33.347Z,10.40
2023-01-02T14:04:32.162Z,6.90
2023-01-02T14:07:40.267Z,6.40
2023-01-02T14:10:42.007Z,8.00
2023-01-02T14:13:22.590Z,5.87
2023-01-02T14:16:23.652Z,8.80
2023-01-02T14:19:18.401Z,44.03
2023-01-02T14:21:51.901Z,18.40
2023-01-02T14:24:31.847Z,7.27
2023-01-02T14:27:05.907Z,5.80
2023-01-02T14:29:50.617Z,6.47
2023-01-02T14:32:25.669Z,5.80
2023-01-02T14:34:58.747Z,7.73
2023-01-02T14:37:38.881Z,6.53
2023-01-02T14:40:19.972Z,7.70
2023-01-02T14:43:11.792Z,7.73
2023-01-02T14:45:45.818Z,9.50
2023-01-02T14:48:18.529Z,9.73
2023-01-02T14:50:49.992Z,8.13
2023-01-02T14:53:23.942Z,7.43
2023-01-02T14:55:56.028Z,6.87
2023-01-02T14:58:36.287Z,8.13
2023-01-02T15:01:06.315Z,8.63
2023-01-02T15:03:44.178Z,10.33
2023-01-02T15:06:19.798Z,8.63
2023-01-02T15:08:52.951Z,7.73
2023-01-02T15:11:43.003Z,11.67
2023-01-02T15:14:19.025Z,7.80
2023-01-02T15:16:54.839Z,7.80
2023-01-02T15:19:26.801Z,7.43
2023-01-02T15:21:56.200Z,6.47
2023-01-02T15:24:30.361Z,8.67
2023-01-02T15:27:14.599Z,7.20
2023-01-02T15:29:47.632Z,7.00
2023-01-02T15:32:21.011Z,10.53
2023-01-02T15:34:51.810Z,15.20
2023-01-02T15:37:23.335Z,38.57
2023-01-02T15:39:56.529Z,32.30
2023-01-02T15:42:45.465Z,11.90
2023-01-02T15:45:17.235Z,10.87
2023-01-02T15:47:48.290Z,25.70
2023-01-02T15:50:20.716Z,14.13
2023-01-02T15:52:51.362Z,12.80
2023-01-02T15:55:22.444Z,13.30
2023-01-02T15:57:55.575Z,9.27
2023-01-02T16:00:36.818Z,9.83
2023-01-02T16:03:06.333Z,10.93
2023-01-02T16:05:48.209Z,9.00
2023-01-02T16:08:21.740Z,11.73
2023-01-02T16:11:01.550Z,11.07
2023-01-02T16:13:49.808Z,10.03
2023-01-02T16:16:20.255Z,13.03
2023-01-02T16:18:51.994Z,77.07
2023-01-02T16:21:21.323Z,90.13
2023-01-02T16:23:54.101Z,12.23
2023-01-02T16:26:31.066Z,12.37
2023-01-02T16:29:00.119Z,10.87
2023-01-02T16:31:29.755Z,13.77
2023-01-02T16:34:16.362Z,10.80
2023-01-02T16:36:45.172Z,11.17
2023-01-02T16:39:42.196Z,15.67
2023-01-02T16:42:29.106Z,11.47
2023-01-02T16:44:58.540Z,9.57
2023-01-02T16:47:33.593Z,10.47
2023-01-02T16:50:02.353Z,12.03
2023-01-02T16:52:31.213Z,11.13
2023-01-02T16:54:59.897Z,11.13
2023-01-02T16:57:30.657Z,9.77
2023-01-02T16:59:59.162Z,9.73
2023-01-02T17:02:27.977Z,10.17
2023-01-02T17:04:56.528Z,11.87
2023-01-02T17:07:25.500Z,11.27
2023-01-02T17:09:54.045Z,10.43
2023-01-02T17:12:23.636Z,20.60
2023-01-02T17:14:53.847Z,30.03
2023-01-02T17:17:22.432Z,21.57
2023-01-02T17:19:51.162Z,15.97
2023-01-02T17:22:19.723Z,14.20
2023-01-02T17:24:48.276Z,10.87
2023-01-02T17:27:16.732Z,10.50
2023-01-02T17:29:45.678Z,14.57
2023-01-02T17:32:15.751Z,11.37
2023-01-02T17:34:44.217Z,10.63
2023-01-02T17:37:12.883Z,11.23
2023-01-02T17:39:41.509Z,10.47
2023-01-02T17:42:11.513Z,10.23
2023-01-02T17:44:40.379Z,12.30
2023-01-02T17:47:57.870Z,10.57
2023-01-02T17:49:59.112Z,13.17
2023-01-02T17:52:27.511Z,11.27
2023-01-02T17:54:56.908Z,11.20
2023-01-02T17:57:26.268Z,13.77
2023-01-02T17:59:54.783Z,12.20
2023-01-02T18:02:23.473Z,10.77
2023-01-02T18:04:55.184Z,10.20
2023-01-02T18:07:25.495Z,10.60
2023-01-02T18:10:12.569Z,8.30
2023-01-02T18:12:43.459Z,10.43
2023-01-02T18:15:15.616Z,9.23
2023-01-02T18:17:44.610Z,8.87
2023-01-02T18:20:15.276Z,9.37
2023-01-02T18:22:50.176Z,11.27
2023-01-02T18:25:21.676Z,13.00
2023-01-02T18:27:50.358Z,14.60
2023-01-02T18:30:21.510Z,20.17
2023-01-02T18:32:51.669Z,14.80
2023-01-02T18:38:21.233Z,14.30
2023-01-02T18:40:49.735Z,13.17
2023-01-02T18:43:23.636Z,17.37
2023-01-02T18:45:54.754Z,13.10
2023-01-02T18:48:24.752Z,12.97
2023-01-02T18:51:01.575Z,11.70
2023-01-02T18:53:38.205Z,13.67
2023-01-02T18:56:20.501Z,114.30
2023-01-02T18:58:56.144Z,21.37
2023-01-02T19:01:28.157Z,17.13
2023-01-02T19:04:14.891Z,12.63
2023-01-02T19:06:49.841Z,13.10
2023-01-02T19:09:21.574Z,10.90
2023-01-02T19:12:12.680Z,12.60
2023-01-02T19:14:42.632Z,12.20
2023-01-02T19:17:21.368Z,11.43
2023-01-02T19:19:50.313Z,14.37
2023-01-02T19:22:21.387Z,10.37
2023-01-02T19:24:51.809Z,13.27
2023-01-02T19:27:25.818Z,12.10
2023-01-02T19:29:55.087Z,13.53
2023-01-02T19:32:28.223Z,11.23
2023-01-02T19:34:58.995Z,24.20
2023-01-02T19:37:39.381Z,18.83
2023-01-02T19:40:19.053Z,19.20
2023-01-02T19:42:49.014Z,11.67
2023-01-02T19:45:18.964Z,12.17
2023-01-02T19:47:48.360Z,10.97
2023-01-02T19:50:21.411Z,12.13
2023-01-02T19:52:50.104Z,13.70
2023-01-02T19:55:20.434Z,17.53
2023-01-02T19:57:52.085Z,16.13
2023-01-02T20:00:21.417Z,11.83
2023-01-02T20:02:51.717Z,14.37
2023-01-02T20:05:22.512Z,14.47
2023-01-02T20:07:52.280Z,10.90
2023-01-02T20:10:22.455Z,11.17
2023-01-02T20:12:51.475Z,9.60
2023-01-02T20:15:23.719Z,72.07
2023-01-02T20:17:53.631Z,153.70
2023-01-02T20:20:23.370Z,200.53
2023-01-02T20:22:52.905Z,267.93
2023-01-02T20:25:26.748Z,128.20
2023-01-02T20:27:56.574Z,153.83
2023-01-02T20:30:25.589Z,21.63
2023-01-02T20:32:54.809Z,14.77
2023-01-02T20:35:24.007Z,202.30
2023-01-02T20:37:52.554Z,191.83
2023-01-02T20:40:22.405Z,423.47
2023-01-02T20:42:50.989Z,173.30
2023-01-02T20:45:19.594Z,165.80
2023-01-02T20:47:48.111Z,190.00
2023-01-02T20:50:17.791Z,75.90
2023-01-02T20:52:46.237Z,14.67
2023-01-02T20:55:15.149Z,281.53
2023-01-02T20:57:47.190Z,77.53
2023-01-02T21:00:20.619Z,58.43
2023-01-02T21:02:51.152Z,55.07
2023-01-02T21:05:19.768Z,89.07
2023-01-02T21:07:48.285Z,22.30
2023-01-02T21:10:16.985Z,11.63
2023-01-02T21:13:02.487Z,10.47
2023-01-02T21:15:52.038Z,7.70
2023-01-02T21:18:23.493Z,8.70
2023-01-02T21:20:54.278Z,8.07
2023-01-02T21:23:24.349Z,7.23
2023-01-02T21:25:53.788Z,8.00
2023-01-02T21:28:24.624Z,7.07
2023-01-02T21:30:53.424Z,7.53
2023-01-02T21:33:24.881Z,6.40
2023-01-02T21:35:55.416Z,7.13
2023-01-02T21:38:25.202Z,7.17
2023-01-02T21:40:54.341Z,8.30
2023-01-02T21:43:24.990Z,8.33
2023-01-02T21:45:53.550Z,7.87
2023-01-02T21:48:21.957Z,7.90
2023-01-02T21:50:50.404Z,7.97
2023-01-02T21:53:18.807Z,8.03
2023-01-02T21:55:47.265Z,7.17
2023-01-02T21:58:15.773Z,6.47
2023-01-02T22:00:45.751Z,7.93
2023-01-02T22:03:14.487Z,7.30
2023-01-02T22:05:43.034Z,8.80
2023-01-02T22:08:11.632Z,8.63
2023-01-02T22:10:40.120Z,7.67
2023-01-02T22:13:08.505Z,8.57
2023-01-02T22:15:37.044Z,8.13
2023-01-02T22:18:07.186Z,12.07
2023-01-02T22:20:35.958Z,21.00
2023-01-02T22:23:05.417Z,26.83
2023-01-02T22:25:33.980Z,12.23
2023-01-02T22:28:02.490Z,13.77
2023-01-02T22:30:34.759Z,9.57
2023-01-02T22:33:04.247Z,10.40
2023-01-02T22:35:34.255Z,8.20
2023-01-02T22:38:02.813Z,10.53
2023-01-02T22:40:31.421Z,17.07
2023-01-02T22:43:02.137Z,10.67
2023-01-02T22:45:36.151Z,46.23
2023-01-02T22:48:08.864Z,123.30
2023-01-02T22:50:44.180Z,41.67
2023-01-02T22:53:20.004Z,15.60
2023-01-02T22:55:48.891Z,59.10
2023-01-02T22:58:17.826Z,42.13
2023-01-02T23:00:48.099Z,11.57
2023-01-02T23:03:18.275Z,11.33
2023-01-02T23:05:48.596Z,28.33
2023-01-02T23:08:17.323Z,20.70
2023-01-02T23:10:46.395Z,115.77
2023-01-02T23:13:14.964Z,11.40
2023-01-02T23:15:57.105Z,15.43
2023-01-02T23:18:42.879Z,9.47
2023-01-02T23:21:13.090Z,8.27
2023-01-02T23:23:41.808Z,11.30
2023-01-02T23:26:10.820Z,9.03
2023-01-02T23:29:05.950Z,9.93
2023-01-02T23:31:28.280Z,9.33
2023-01-02T23:33:57.023Z,9.53
2023-01-02T23:36:27.567Z,11.30
2023-01-02T23:38:56.709Z,8.47
2023-01-02T23:41:25.619Z,7.60
2023-01-02T23:43:54.406Z,9.07
2023-01-02T23:46:23.097Z,11.70
2023-01-02T23:48:51.568Z,9.70
2023-01-02T23:51:19.953Z,8.23
2023-01-02T23:53:50.141Z,9.00
2023-01-02T23:56:21.346Z,24.70
2023-01-02T23:58:50.799Z,11.23
